sensor_id;sensor_type;location;lat;lon;timestamp;pressure;altitude;pressure_sealevel;temperature;humidity
45040;BME280;30778;53.574;7.770;2023-04-07T00:00:55;101549.75;;;5.40;44.11
45040;BME280;30778;53.574;7.770;2023-04-07T00:03:21;101550.56;;;5.45;44.30
45040;BME280;30778;53.574;7.770;2023-04-07T00:05:46;101541.84;;;5.55;44.04
45040;BME280;30778;53.574;7.770;2023-04-07T00:08:12;101543.44;;;5.70;43.47
45040;BME280;30778;53.574;7.770;2023-04-07T00:10:38;101543.44;;;5.73;43.23
45040;BME280;30778;53.574;7.770;2023-04-07T00:13:03;101547.06;;;5.52;43.69
45040;BME280;30778;53.574;7.770;2023-04-07T00:15:31;101551.50;;;5.38;44.30
45040;BME280;30778;53.574;7.770;2023-04-07T00:17:56;101548.03;;;5.39;44.18
45040;BME280;30778;53.574;7.770;2023-04-07T00:20:22;101554.94;;;5.40;44.14
45040;BME280;30778;53.574;7.770;2023-04-07T00:22:48;101544.56;;;5.40;44.05
45040;BME280;30778;53.574;7.770;2023-04-07T00:25:14;101551.47;;;5.41;43.37
45040;BME280;30778;53.574;7.770;2023-04-07T00:27:39;101542.91;;;5.31;43.60
45040;BME280;30778;53.574;7.770;2023-04-07T00:30:06;101545.47;;;5.34;43.78
45040;BME280;30778;53.574;7.770;2023-04-07T00:32:31;101545.47;;;5.36;43.54
45040;BME280;30778;53.574;7.770;2023-04-07T00:34:59;101541.13;;;5.36;43.71
45040;BME280;30778;53.574;7.770;2023-04-07T00:37:24;101540.28;;;5.34;43.81
45040;BME280;30778;53.574;7.770;2023-04-07T00:39:53;101548.13;;;5.27;43.91
45040;BME280;30778;53.574;7.770;2023-04-07T00:42:18;101544.66;;;5.29;44.31
45040;BME280;30778;53.574;7.770;2023-04-07T00:44:44;101546.41;;;5.24;44.32
45040;BME280;30778;53.574;7.770;2023-04-07T00:47:10;101549.84;;;5.24;44.32
45040;BME280;30778;53.574;7.770;2023-04-07T00:49:38;101537.81;;;5.17;44.40
45040;BME280;30778;53.574;7.770;2023-04-07T00:52:04;101543.94;;;5.10;44.97
45040;BME280;30778;53.574;7.770;2023-04-07T00:54:37;101539.63;;;5.03;45.39
45040;BME280;30778;53.574;7.770;2023-04-07T00:57:02;101536.16;;;5.07;44.92
45040;BME280;30778;53.574;7.770;2023-04-07T00:59:28;101543.09;;;5.02;44.96
45040;BME280;30778;53.574;7.770;2023-04-07T01:02:04;101546.53;;;5.01;45.25
45040;BME280;30778;53.574;7.770;2023-04-07T01:07:13;101545.66;;;5.05;45.16
45040;BME280;30778;53.574;7.770;2023-04-07T01:09:57;101549.13;;;5.02;45.31
45040;BME280;30778;53.574;7.770;2023-04-07T01:15:06;101543.13;;;4.96;45.53
45040;BME280;30778;53.574;7.770;2023-04-07T01:17:49;101547.47;;;4.89;45.59
45040;BME280;30778;53.574;7.770;2023-04-07T01:20:19;101548.38;;;4.76;46.20
45040;BME280;30778;53.574;7.770;2023-04-07T01:22:53;101551.81;;;4.89;45.96
45040;BME280;30778;53.574;7.770;2023-04-07T01:25:45;101539.72;;;4.92;45.52
45040;BME280;30778;53.574;7.770;2023-04-07T01:31:09;101544.84;;;5.01;45.69
45040;BME280;30778;53.574;7.770;2023-04-07T01:33:37;101547.47;;;4.97;45.58
45040;BME280;30778;53.574;7.770;2023-04-07T01:36:06;101544.88;;;4.97;45.32
45040;BME280;30778;53.574;7.770;2023-04-07T01:38:32;101543.94;;;5.01;45.07
45040;BME280;30778;53.574;7.770;2023-04-07T01:40:59;101543.13;;;4.96;45.59
45040;BME280;30778;53.574;7.770;2023-04-07T01:43:26;101553.53;;;4.93;45.57
45040;BME280;30778;53.574;7.770;2023-04-07T01:45:54;101550.00;;;4.98;45.51
45040;BME280;30778;53.574;7.770;2023-04-07T01:48:21;101550.06;;;4.88;45.56
45040;BME280;30778;53.574;7.770;2023-04-07T01:50:48;101540.56;;;4.87;45.38
45040;BME280;30778;53.574;7.770;2023-04-07T01:53:14;101535.38;;;4.87;45.31
45040;BME280;30778;53.574;7.770;2023-04-07T01:55:41;101538.81;;;4.93;45.11
45040;BME280;30778;53.574;7.770;2023-04-07T01:58:10;101542.31;;;4.88;45.14
45040;BME280;30778;53.574;7.770;2023-04-07T02:00:40;101544.88;;;4.88;44.94
45040;BME280;30778;53.574;7.770;2023-04-07T02:03:19;101542.22;;;5.03;44.79
45040;BME280;30778;53.574;7.770;2023-04-07T02:05:49;101546.59;;;4.95;44.84
45040;BME280;30778;53.574;7.770;2023-04-07T02:08:18;101549.09;;;5.05;44.42
45040;BME280;30778;53.574;7.770;2023-04-07T02:10:47;101545.72;;;4.94;44.49
45040;BME280;30778;53.574;7.770;2023-04-07T02:13:17;101552.66;;;4.92;44.74
45040;BME280;30778;53.574;7.770;2023-04-07T02:15:47;101547.47;;;4.83;44.75
45040;BME280;30778;53.574;7.770;2023-04-07T02:18:18;101554.38;;;4.82;44.89
45040;BME280;30778;53.574;7.770;2023-04-07T02:20:45;101547.47;;;4.83;44.49
45040;BME280;30778;53.574;7.770;2023-04-07T02:23:12;101542.28;;;4.84;44.68
45040;BME280;30778;53.574;7.770;2023-04-07T02:25:37;101556.13;;;4.82;44.34
45040;BME280;30778;53.574;7.770;2023-04-07T02:28:06;101552.78;;;4.61;45.09
45040;BME280;30778;53.574;7.770;2023-04-07T02:30:33;101562.25;;;4.64;45.19
45040;BME280;30778;53.574;7.770;2023-04-07T02:32:59;101563.19;;;4.52;45.24
45040;BME280;30778;53.574;7.770;2023-04-07T02:35:25;101558.81;;;4.56;45.22
45040;BME280;30778;53.574;7.770;2023-04-07T02:37:51;101558.91;;;4.36;45.21
45040;BME280;30778;53.574;7.770;2023-04-07T02:40:17;101564.94;;;4.41;44.94
45040;BME280;30778;53.574;7.770;2023-04-07T02:42:43;101559.78;;;4.33;45.10
45040;BME280;30778;53.574;7.770;2023-04-07T02:45:09;101565.84;;;4.23;45.21
45040;BME280;30778;53.574;7.770;2023-04-07T02:47:38;101565.78;;;4.41;44.57
45040;BME280;30778;53.574;7.770;2023-04-07T02:50:06;101564.94;;;4.33;44.51
45040;BME280;30778;53.574;7.770;2023-04-07T02:52:34;101572.69;;;4.46;44.06
45040;BME280;30778;53.574;7.770;2023-04-07T02:55:02;101564.00;;;4.63;43.66
45040;BME280;30778;53.574;7.770;2023-04-07T02:57:28;101560.63;;;4.29;44.20
45040;BME280;30778;53.574;7.770;2023-04-07T02:59:57;101564.94;;;4.32;44.03
45040;BME280;30778;53.574;7.770;2023-04-07T03:02:29;101563.22;;;4.35;44.16
45040;BME280;30778;53.574;7.770;2023-04-07T03:04:55;101564.09;;;4.27;44.01
45040;BME280;30778;53.574;7.770;2023-04-07T03:07:24;101568.41;;;4.31;44.32
45040;BME280;30778;53.574;7.770;2023-04-07T03:09:53;101571.84;;;4.37;43.87
45040;BME280;30778;53.574;7.770;2023-04-07T03:12:19;101571.81;;;4.42;43.63
45040;BME280;30778;53.574;7.770;2023-04-07T03:14:44;101566.69;;;4.31;43.75
45040;BME280;30778;53.574;7.770;2023-04-07T03:17:10;101569.22;;;4.47;43.31
45040;BME280;30778;53.574;7.770;2023-04-07T03:19:35;101567.44;;;4.58;43.09
45040;BME280;30778;53.574;7.770;2023-04-07T03:22:03;101569.19;;;4.50;43.12
45040;BME280;30778;53.574;7.770;2023-04-07T03:24:33;101573.53;;;4.43;42.67
45040;BME280;30778;53.574;7.770;2023-04-07T03:27:01;101565.72;;;4.54;42.65
45040;BME280;30778;53.574;7.770;2023-04-07T03:29:56;101562.31;;;4.49;42.38
45040;BME280;30778;53.574;7.770;2023-04-07T03:32:26;101575.25;;;4.42;42.46
45040;BME280;30778;53.574;7.770;2023-04-07T03:34:52;101570.97;;;4.40;42.63
45040;BME280;30778;53.574;7.770;2023-04-07T03:37:17;101568.41;;;4.29;42.65
45040;BME280;30778;53.574;7.770;2023-04-07T03:39:44;101577.06;;;4.30;42.61
45040;BME280;30778;53.574;7.770;2023-04-07T03:42:24;101568.44;;;4.28;43.08
45040;BME280;30778;53.574;7.770;2023-04-07T03:44:55;101570.97;;;4.35;42.64
45040;BME280;30778;53.574;7.770;2023-04-07T03:47:21;101569.28;;;4.25;42.77
45040;BME280;30778;53.574;7.770;2023-04-07T03:49:55;101572.75;;;4.26;42.44
45040;BME280;30778;53.574;7.770;2023-04-07T03:52:21;101565.00;;;4.13;42.65
45040;BME280;30778;53.574;7.770;2023-04-07T03:54:53;101570.19;;;4.16;42.67
45040;BME280;30778;53.574;7.770;2023-04-07T03:57:22;101579.69;;;4.10;42.73
45040;BME280;30778;53.574;7.770;2023-04-07T03:59:50;101582.28;;;4.04;42.66
45040;BME280;30778;53.574;7.770;2023-04-07T04:02:17;101582.22;;;4.16;42.36
45040;BME280;30778;53.574;7.770;2023-04-07T04:04:46;101583.09;;;4.18;42.67
45040;BME280;30778;53.574;7.770;2023-04-07T04:07:13;101584.84;;;3.97;42.74
45040;BME280;30778;53.574;7.770;2023-04-07T04:09:48;101583.09;;;4.12;42.51
45040;BME280;30778;53.574;7.770;2023-04-07T04:12:13;101586.59;;;3.92;43.12
45040;BME280;30778;53.574;7.770;2023-04-07T04:14:48;101577.97;;;3.99;42.43
45040;BME280;30778;53.574;7.770;2023-04-07T04:17:15;101591.75;;;3.89;42.63
45040;BME280;30778;53.574;7.770;2023-04-07T04:19:44;101591.75;;;3.94;42.57
45040;BME280;30778;53.574;7.770;2023-04-07T04:22:20;101591.75;;;3.86;42.59
45040;BME280;30778;53.574;7.770;2023-04-07T04:24:50;101590.03;;;4.02;42.15
45040;BME280;30778;53.574;7.770;2023-04-07T04:27:19;101590.03;;;3.79;42.86
45040;BME280;30778;53.574;7.770;2023-04-07T04:29:50;101593.47;;;3.84;42.34
45040;BME280;30778;53.574;7.770;2023-04-07T04:32:22;101598.66;;;3.69;42.67
45040;BME280;30778;53.574;7.770;2023-04-07T04:34:50;101603.81;;;3.69;42.37
45040;BME280;30778;53.574;7.770;2023-04-07T04:37:19;101603.84;;;3.66;42.39
45040;BME280;30778;53.574;7.770;2023-04-07T04:39:48;101607.25;;;3.65;42.37
45040;BME280;30778;53.574;7.770;2023-04-07T04:42:19;101614.19;;;3.66;42.27
45040;BME280;30778;53.574;7.770;2023-04-07T04:44:46;101617.63;;;3.74;42.25
45040;BME280;30778;53.574;7.770;2023-04-07T04:47:13;101622.78;;;3.68;42.24
45040;BME280;30778;53.574;7.770;2023-04-07T04:49:41;101624.50;;;3.56;42.59
45040;BME280;30778;53.574;7.770;2023-04-07T04:52:07;101617.59;;;3.43;42.71
45040;BME280;30778;53.574;7.770;2023-04-07T04:54:38;101621.03;;;3.39;42.74
45040;BME280;30778;53.574;7.770;2023-04-07T04:57:06;101621.91;;;3.64;42.17
45040;BME280;30778;53.574;7.770;2023-04-07T04:59:33;101620.22;;;3.78;41.84
45040;BME280;30778;53.574;7.770;2023-04-07T05:02:02;101628.81;;;3.76;41.86
45040;BME280;30778;53.574;7.770;2023-04-07T05:04:28;101627.09;;;3.61;41.66
45040;BME280;30778;53.574;7.770;2023-04-07T05:07:00;101632.25;;;3.59;42.02
45040;BME280;30778;53.574;7.770;2023-04-07T05:09:28;101624.50;;;3.63;41.64
45040;BME280;30778;53.574;7.770;2023-04-07T05:11:53;101633.13;;;3.60;41.73
45040;BME280;30778;53.574;7.770;2023-04-07T05:14:21;101633.97;;;3.54;41.65
45040;BME280;30778;53.574;7.770;2023-04-07T05:16:54;101638.31;;;3.83;41.24
45040;BME280;30778;53.574;7.770;2023-04-07T05:19:23;101636.56;;;3.76;41.06
45040;BME280;30778;53.574;7.770;2023-04-07T05:21:52;101642.63;;;3.72;41.01
45040;BME280;30778;53.574;7.770;2023-04-07T05:24:20;101643.47;;;3.66;40.97
45040;BME280;30778;53.574;7.770;2023-04-07T05:26:55;101643.47;;;3.82;40.65
45040;BME280;30778;53.574;7.770;2023-04-07T05:29:22;101654.69;;;4.07;40.58
45040;BME280;30778;53.574;7.770;2023-04-07T05:31:50;101650.38;;;4.09;40.49
45040;BME280;30778;53.574;7.770;2023-04-07T05:34:16;101649.50;;;4.11;40.14
45040;BME280;30778;53.574;7.770;2023-04-07T05:36:48;101640.91;;;4.23;39.54
45040;BME280;30778;53.574;7.770;2023-04-07T05:39:14;101646.91;;;4.31;39.82
45040;BME280;30778;53.574;7.770;2023-04-07T05:41:41;101656.38;;;4.46;39.37
45040;BME280;30778;53.574;7.770;2023-04-07T05:44:08;101657.78;;;5.39;36.78
45040;BME280;30778;53.574;7.770;2023-04-07T05:46:38;101664.25;;;6.00;35.85
45040;BME280;30778;53.574;7.770;2023-04-07T05:49:03;101655.91;;;6.65;34.46
45040;BME280;30778;53.574;7.770;2023-04-07T05:51:29;101668.00;;;6.66;34.67
45040;BME280;30778;53.574;7.770;2023-04-07T05:54:00;101666.22;;;6.71;34.45
45040;BME280;30778;53.574;7.770;2023-04-07T05:56:27;101666.97;;;6.82;33.80
45040;BME280;30778;53.574;7.770;2023-04-07T05:58:53;101671.69;;;7.21;32.83
45040;BME280;30778;53.574;7.770;2023-04-07T06:01:19;101671.41;;;8.00;31.68
45040;BME280;30778;53.574;7.770;2023-04-07T06:03:46;101673.44;;;8.33;30.90
45040;BME280;30778;53.574;7.770;2023-04-07T06:06:15;101673.25;;;7.93;31.38
45040;BME280;30778;53.574;7.770;2023-04-07T06:08:41;101680.78;;;8.11;30.91
45040;BME280;30778;53.574;7.770;2023-04-07T06:11:06;101670.78;;;9.25;29.31
45040;BME280;30778;53.574;7.770;2023-04-07T06:13:32;101673.88;;;9.02;29.18
45040;BME280;30778;53.574;7.770;2023-04-07T06:16:01;101675.09;;;9.65;28.47
45040;BME280;30778;53.574;7.770;2023-04-07T06:18:27;101680.38;;;9.64;27.90
45040;BME280;30778;53.574;7.770;2023-04-07T06:20:52;101677.91;;;9.57;28.33
45040;BME280;30778;53.574;7.770;2023-04-07T06:23:18;101685.28;;;9.77;27.93
45040;BME280;30778;53.574;7.770;2023-04-07T06:25:46;101688.72;;;9.40;28.20
45040;BME280;30778;53.574;7.770;2023-04-07T06:28:16;101687.81;;;10.16;27.27
45040;BME280;30778;53.574;7.770;2023-04-07T06:30:42;101699.63;;;10.33;27.03
45040;BME280;30778;53.574;7.770;2023-04-07T06:33:10;101701.59;;;10.57;26.58
45040;BME280;30778;53.574;7.770;2023-04-07T06:35:38;101704.44;;;10.48;26.38
45040;BME280;30778;53.574;7.770;2023-04-07T06:38:05;101710.38;;;10.20;27.15
45040;BME280;30778;53.574;7.770;2023-04-07T06:40:32;101705.59;;;10.71;26.97
45040;BME280;30778;53.574;7.770;2023-04-07T06:42:57;101716.06;;;10.69;26.48
45040;BME280;30778;53.574;7.770;2023-04-07T06:45:32;101720.34;;;10.39;26.94
45040;BME280;30778;53.574;7.770;2023-04-07T06:47:58;101725.09;;;10.90;26.23
45040;BME280;30778;53.574;7.770;2023-04-07T06:50:23;101723.94;;;11.32;25.90
45040;BME280;30778;53.574;7.770;2023-04-07T06:52:51;101729.25;;;11.86;25.02
45040;BME280;30778;53.574;7.770;2023-04-07T06:55:16;101722.06;;;12.20;24.54
45040;BME280;30778;53.574;7.770;2023-04-07T06:57:42;101727.06;;;12.27;23.86
45040;BME280;30778;53.574;7.770;2023-04-07T07:00:08;101728.81;;;11.72;24.56
45040;BME280;30778;53.574;7.770;2023-04-07T07:02:33;101728.47;;;11.84;24.41
45040;BME280;30778;53.574;7.770;2023-04-07T07:04:59;101723.84;;;11.63;24.67
45040;BME280;30778;53.574;7.770;2023-04-07T07:07:27;101732.50;;;12.21;24.01
45040;BME280;30778;53.574;7.770;2023-04-07T07:09:53;101742.91;;;12.49;23.85
45040;BME280;30778;53.574;7.770;2023-04-07T07:12:18;101733.97;;;13.05;22.82
45040;BME280;30778;53.574;7.770;2023-04-07T07:14:44;101730.94;;;12.93;23.00
45040;BME280;30778;53.574;7.770;2023-04-07T07:17:09;101737.22;;;12.37;24.03
45040;BME280;30778;53.574;7.770;2023-04-07T07:19:34;101747.66;;;10.94;25.36
45040;BME280;30778;53.574;7.770;2023-04-07T07:22:03;101751.31;;;9.42;27.46
45040;BME280;30778;53.574;7.770;2023-04-07T07:24:29;101764.38;;;8.47;28.77
45040;BME280;30778;53.574;7.770;2023-04-07T07:26:58;101765.03;;;8.07;29.42
45040;BME280;30778;53.574;7.770;2023-04-07T07:29:26;101768.59;;;8.00;29.79
45040;BME280;30778;53.574;7.770;2023-04-07T07:31:51;101773.56;;;8.15;29.91
45040;BME280;30778;53.574;7.770;2023-04-07T07:34:16;101772.72;;;8.68;29.41
45040;BME280;30778;53.574;7.770;2023-04-07T07:36:42;101770.69;;;8.34;29.88
45040;BME280;30778;53.574;7.770;2023-04-07T07:39:07;101778.09;;;9.07;29.48
45040;BME280;30778;53.574;7.770;2023-04-07T07:41:33;101771.84;;;9.98;28.13
45040;BME280;30778;53.574;7.770;2023-04-07T07:43:59;101779.66;;;9.59;28.46
45040;BME280;30778;53.574;7.770;2023-04-07T07:46:27;101785.28;;;10.54;27.26
45040;BME280;30778;53.574;7.770;2023-04-07T07:48:55;101788.13;;;10.45;27.66
45040;BME280;30778;53.574;7.770;2023-04-07T07:51:21;101788.59;;;10.27;27.95
45040;BME280;30778;53.574;7.770;2023-04-07T07:53:46;101794.50;;;11.94;25.93
45040;BME280;30778;53.574;7.770;2023-04-07T07:56:12;101790.94;;;12.78;24.81
45040;BME280;30778;53.574;7.770;2023-04-07T07:58:38;101805.34;;;11.52;26.21
45040;BME280;30778;53.574;7.770;2023-04-07T08:01:06;101806.03;;;10.62;27.56
45040;BME280;30778;53.574;7.770;2023-04-07T08:03:32;101797.56;;;9.74;28.98
45040;BME280;30778;53.574;7.770;2023-04-07T08:05:57;101807.84;;;10.22;28.82
45040;BME280;30778;53.574;7.770;2023-04-07T08:08:22;101811.00;;;11.05;27.55
45040;BME280;30778;53.574;7.770;2023-04-07T08:10:48;101812.03;;;10.30;28.96
45040;BME280;30778;53.574;7.770;2023-04-07T08:13:13;101813.91;;;10.60;28.84
45040;BME280;30778;53.574;7.770;2023-04-07T08:15:39;101804.91;;;11.67;27.31
45040;BME280;30778;53.574;7.770;2023-04-07T08:18:05;101810.88;;;12.82;26.13
45040;BME280;30778;53.574;7.770;2023-04-07T08:20:31;101816.69;;;13.16;25.55
45040;BME280;30778;53.574;7.770;2023-04-07T08:22:58;101807.25;;;13.35;25.14
45040;BME280;30778;53.574;7.770;2023-04-07T08:25:27;101805.44;;;13.37;24.92
45040;BME280;30778;53.574;7.770;2023-04-07T08:27:52;101820.44;;;13.59;24.97
45040;BME280;30778;53.574;7.770;2023-04-07T08:30:18;101813.84;;;13.70;24.77
45040;BME280;30778;53.574;7.770;2023-04-07T08:32:45;101820.91;;;13.92;24.58
45040;BME280;30778;53.574;7.770;2023-04-07T08:35:10;101807.97;;;14.52;23.82
45040;BME280;30778;53.574;7.770;2023-04-07T08:37:39;101814.59;;;14.18;24.26
45040;BME280;30778;53.574;7.770;2023-04-07T08:40:05;101823.81;;;14.28;24.09
45040;BME280;30778;53.574;7.770;2023-04-07T08:42:33;101831.47;;;14.97;23.71
45040;BME280;30778;53.574;7.770;2023-04-07T08:45:05;101824.75;;;13.83;24.08
45040;BME280;30778;53.574;7.770;2023-04-07T08:47:35;101827.81;;;13.47;24.90
45040;BME280;30778;53.574;7.770;2023-04-07T08:50:06;101830.81;;;13.62;25.04
45040;BME280;30778;53.574;7.770;2023-04-07T08:52:45;101828.97;;;12.63;26.03
45040;BME280;30778;53.574;7.770;2023-04-07T08:55:14;101827.34;;;12.87;26.25
45040;BME280;30778;53.574;7.770;2023-04-07T08:57:41;101838.97;;;12.25;26.12
45040;BME280;30778;53.574;7.770;2023-04-07T09:00:07;101834.53;;;12.54;26.10
45040;BME280;30778;53.574;7.770;2023-04-07T09:02:40;101839.19;;;11.60;27.32
45040;BME280;30778;53.574;7.770;2023-04-07T09:05:08;101840.91;;;11.28;27.53
45040;BME280;30778;53.574;7.770;2023-04-07T09:07:36;101845.03;;;11.05;28.60
45040;BME280;30778;53.574;7.770;2023-04-07T09:10:03;101842.00;;;11.21;27.86
45040;BME280;30778;53.574;7.770;2023-04-07T09:12:30;101843.31;;;11.04;28.55
45040;BME280;30778;53.574;7.770;2023-04-07T09:14:56;101835.13;;;11.17;28.60
45040;BME280;30778;53.574;7.770;2023-04-07T09:17:21;101845.81;;;11.72;27.75
45040;BME280;30778;53.574;7.770;2023-04-07T09:19:49;101844.03;;;11.42;27.87
45040;BME280;30778;53.574;7.770;2023-04-07T09:22:33;101840.34;;;11.79;27.20
45040;BME280;30778;53.574;7.770;2023-04-07T09:25:15;101845.97;;;11.36;27.85
45040;BME280;30778;53.574;7.770;2023-04-07T09:28:01;101841.31;;;11.45;27.74
45040;BME280;30778;53.574;7.770;2023-04-07T09:30:28;101838.41;;;12.16;27.77
45040;BME280;30778;53.574;7.770;2023-04-07T09:32:54;101840.25;;;12.12;27.64
45040;BME280;30778;53.574;7.770;2023-04-07T09:35:20;101838.41;;;11.86;27.07
45040;BME280;30778;53.574;7.770;2023-04-07T09:38:08;101856.31;;;11.08;27.74
45040;BME280;30778;53.574;7.770;2023-04-07T09:40:34;101847.38;;;11.15;27.24
45040;BME280;30778;53.574;7.770;2023-04-07T09:43:02;101856.75;;;10.55;28.21
45040;BME280;30778;53.574;7.770;2023-04-07T09:45:30;101839.31;;;10.55;27.52
45040;BME280;30778;53.574;7.770;2023-04-07T09:47:56;101841.06;;;10.55;27.43
45040;BME280;30778;53.574;7.770;2023-04-07T09:50:31;101843.94;;;10.44;26.09
45040;BME280;30778;53.574;7.770;2023-04-07T09:53:00;101838.06;;;9.97;26.05
45040;BME280;30778;53.574;7.770;2023-04-07T09:55:30;101835.78;;;10.56;25.79
45040;BME280;30778;53.574;7.770;2023-04-07T09:57:55;101835.03;;;10.51;24.34
45040;BME280;30778;53.574;7.770;2023-04-07T10:00:22;101844.78;;;10.82;24.02
45040;BME280;30778;53.574;7.770;2023-04-07T10:02:48;101846.41;;;10.86;24.73
45040;BME280;30778;53.574;7.770;2023-04-07T10:05:15;101855.56;;;11.02;24.65
45040;BME280;30778;53.574;7.770;2023-04-07T10:07:43;101849.13;;;11.16;23.91
45040;BME280;30778;53.574;7.770;2023-04-07T10:10:11;101848.00;;;11.56;24.41
45040;BME280;30778;53.574;7.770;2023-04-07T10:12:37;101847.41;;;11.77;23.33
45040;BME280;30778;53.574;7.770;2023-04-07T10:15:09;101841.63;;;11.96;23.17
45040;BME280;30778;53.574;7.770;2023-04-07T10:17:38;101830.31;;;11.01;23.11
45040;BME280;30778;53.574;7.770;2023-04-07T10:20:06;101845.13;;;11.65;24.10
45040;BME280;30778;53.574;7.770;2023-04-07T10:22:34;101836.97;;;12.34;23.70
45040;BME280;30778;53.574;7.770;2023-04-07T10:25:07;101856.25;;;12.03;23.25
45040;BME280;30778;53.574;7.770;2023-04-07T10:27:41;101850.69;;;11.53;23.74
45040;BME280;30778;53.574;7.770;2023-04-07T10:30:17;101856.81;;;11.84;23.83
45040;BME280;30778;53.574;7.770;2023-04-07T10:32:51;101852.53;;;12.38;22.76
45040;BME280;30778;53.574;7.770;2023-04-07T10:35:18;101864.06;;;11.43;22.92
45040;BME280;30778;53.574;7.770;2023-04-07T10:40:33;101863.03;;;11.18;24.06
45040;BME280;30778;53.574;7.770;2023-04-07T10:42:59;101861.13;;;11.23;23.79
45040;BME280;30778;53.574;7.770;2023-04-07T10:48:24;101866.13;;;12.23;23.14
45040;BME280;30778;53.574;7.770;2023-04-07T10:53:31;101874.13;;;11.26;23.35
45040;BME280;30778;53.574;7.770;2023-04-07T10:55:57;101872.31;;;11.61;22.93
45040;BME280;30778;53.574;7.770;2023-04-07T11:03:22;101870.00;;;12.38;22.69
45040;BME280;30778;53.574;7.770;2023-04-07T11:05:49;101879.19;;;12.51;22.46
45040;BME280;30778;53.574;7.770;2023-04-07T11:08:15;101879.84;;;12.86;21.91
45040;BME280;30778;53.574;7.770;2023-04-07T11:10:56;101875.88;;;12.74;21.65
45040;BME280;30778;53.574;7.770;2023-04-07T11:13:21;101887.44;;;12.40;21.67
45040;BME280;30778;53.574;7.770;2023-04-07T11:15:49;101891.41;;;11.96;21.96
45040;BME280;30778;53.574;7.770;2023-04-07T11:18:20;101882.75;;;12.50;21.82
45040;BME280;30778;53.574;7.770;2023-04-07T11:20:51;101880.31;;;12.44;22.27
45040;BME280;30778;53.574;7.770;2023-04-07T11:23:18;101881.25;;;12.96;21.95
45040;BME280;30778;53.574;7.770;2023-04-07T11:25:47;101884.44;;;12.79;21.46
45040;BME280;30778;53.574;7.770;2023-04-07T11:28:13;101879.16;;;13.06;21.45
45040;BME280;30778;53.574;7.770;2023-04-07T11:30:52;101885.50;;;13.25;21.23
45040;BME280;30778;53.574;7.770;2023-04-07T11:33:24;101887.38;;;12.68;22.30
45040;BME280;30778;53.574;7.770;2023-04-07T11:35:57;101891.34;;;11.97;21.65
45040;BME280;30778;53.574;7.770;2023-04-07T11:38:28;101892.53;;;12.45;22.50
45040;BME280;30778;53.574;7.770;2023-04-07T11:40:55;101894.09;;;12.50;22.15
45040;BME280;30778;53.574;7.770;2023-04-07T11:43:25;101897.97;;;12.39;21.93
45040;BME280;30778;53.574;7.770;2023-04-07T11:46:13;101896.19;;;12.94;21.97
45040;BME280;30778;53.574;7.770;2023-04-07T11:48:43;101895.88;;;13.03;20.78
45040;BME280;30778;53.574;7.770;2023-04-07T11:51:21;101894.47;;;12.93;21.80
45040;BME280;30778;53.574;7.770;2023-04-07T11:53:54;101894.31;;;12.98;22.25
45040;BME280;30778;53.574;7.770;2023-04-07T11:56:23;101889.69;;;12.51;21.75
45040;BME280;30778;53.574;7.770;2023-04-07T11:58:49;101897.59;;;13.04;21.99
45040;BME280;30778;53.574;7.770;2023-04-07T12:01:15;101908.41;;;13.20;21.77
45040;BME280;30778;53.574;7.770;2023-04-07T12:04:02;101900.94;;;13.09;20.95
45040;BME280;30778;53.574;7.770;2023-04-07T12:06:35;101908.44;;;12.67;21.86
45040;BME280;30778;53.574;7.770;2023-04-07T12:09:24;101904.41;;;13.35;21.14
45040;BME280;30778;53.574;7.770;2023-04-07T12:11:51;101912.16;;;13.38;21.26
45040;BME280;30778;53.574;7.770;2023-04-07T12:14:16;101908.19;;;13.51;20.94
45040;BME280;30778;53.574;7.770;2023-04-07T12:16:42;101904.16;;;14.13;20.10
45040;BME280;30778;53.574;7.770;2023-04-07T12:19:08;101913.72;;;13.44;20.56
45040;BME280;30778;53.574;7.770;2023-04-07T12:21:35;101919.34;;;13.33;20.87
45040;BME280;30778;53.574;7.770;2023-04-07T12:24:01;101912.09;;;14.12;20.64
45040;BME280;30778;53.574;7.770;2023-04-07T12:26:27;101903.50;;;13.61;21.50
45040;BME280;30778;53.574;7.770;2023-04-07T12:28:52;101917.31;;;13.41;21.23
45040;BME280;30778;53.574;7.770;2023-04-07T12:31:19;101915.88;;;12.81;21.58
45040;BME280;30778;53.574;7.770;2023-04-07T12:33:44;101926.72;;;12.70;22.15
45040;BME280;30778;53.574;7.770;2023-04-07T12:36:10;101917.72;;;13.29;21.87
45040;BME280;30778;53.574;7.770;2023-04-07T12:38:36;101915.88;;;13.56;21.19
45040;BME280;30778;53.574;7.770;2023-04-07T12:41:01;101920.59;;;14.19;21.12
45040;BME280;30778;53.574;7.770;2023-04-07T12:43:30;101919.44;;;13.80;21.29
45040;BME280;30778;53.574;7.770;2023-04-07T12:45:56;101921.03;;;14.53;21.18
45040;BME280;30778;53.574;7.770;2023-04-07T12:48:22;101918.00;;;15.27;19.32
45040;BME280;30778;53.574;7.770;2023-04-07T12:50:51;101917.88;;;14.88;19.77
45040;BME280;30778;53.574;7.770;2023-04-07T12:53:17;101919.22;;;13.86;20.76
45040;BME280;30778;53.574;7.770;2023-04-07T12:55:46;101909.00;;;14.24;20.12
45040;BME280;30778;53.574;7.770;2023-04-07T12:58:12;101925.41;;;14.54;20.29
45040;BME280;30778;53.574;7.770;2023-04-07T13:00:38;101923.09;;;14.67;20.13
45040;BME280;30778;53.574;7.770;2023-04-07T13:03:04;101929.81;;;14.74;19.38
45040;BME280;30778;53.574;7.770;2023-04-07T13:05:29;101919.97;;;14.80;19.66
45040;BME280;30778;53.574;7.770;2023-04-07T13:07:57;101922.78;;;15.17;19.87
45040;BME280;30778;53.574;7.770;2023-04-07T13:10:26;101932.03;;;14.63;19.27
45040;BME280;30778;53.574;7.770;2023-04-07T13:12:51;101926.84;;;14.16;19.99
45040;BME280;30778;53.574;7.770;2023-04-07T13:15:17;101920.00;;;14.34;19.88
45040;BME280;30778;53.574;7.770;2023-04-07T13:17:43;101922.50;;;13.91;20.01
45040;BME280;30778;53.574;7.770;2023-04-07T13:20:09;101929.19;;;13.01;21.53
45040;BME280;30778;53.574;7.770;2023-04-07T13:22:35;101932.16;;;13.42;20.37